sensor_id;sensor_type;location;lat;lon;timestamp;pressure;altitude;pressure_sealevel;temperature;humidity
63433;BME280;49564;59.406;24.724;2023-11-21T00:02:23;101428.40;;;3.85;33.77
63433;BME280;49564;59.406;24.724;2023-11-21T00:04:51;101428.00;;;4.06;33.42
63433;BME280;49564;59.406;24.724;2023-11-21T00:07:18;101429.15;;;3.87;33.61
63433;BME280;49564;59.406;24.724;2023-11-21T00:09:45;101431.92;;;3.94;33.61
63433;BME280;49564;59.406;24.724;2023-11-21T00:12:12;101432.80;;;3.90;33.71
63433;BME280;49564;59.406;24.724;2023-11-21T00:14:39;101433.42;;;4.22;33.33
63433;BME280;49564;59.406;24.724;2023-11-21T00:17:06;101435.77;;;3.90;33.41
63433;BME280;49564;59.406;24.724;2023-11-21T00:19:34;101435.87;;;3.93;33.33
63433;BME280;49564;59.406;24.724;2023-11-21T00:22:01;101438.33;;;3.88;33.53
63433;BME280;49564;59.406;24.724;2023-11-21T00:24:28;101439.51;;;3.89;33.41
63433;BME280;49564;59.406;24.724;2023-11-21T00:26:55;101439.46;;;3.88;33.53
63433;BME280;49564;59.406;24.724;2023-11-21T00:29:22;101441.09;;;3.85;33.64
63433;BME280;49564;59.406;24.724;2023-11-21T00:31:49;101440.32;;;3.67;33.39
63433;BME280;49564;59.406;24.724;2023-11-21T00:34:15;101438.41;;;4.18;33.59
63433;BME280;49564;59.406;24.724;2023-11-21T00:36:42;101438.98;;;3.97;33.62
63433;BME280;49564;59.406;24.724;2023-11-21T00:39:09;101440.92;;;3.98;33.33
63433;BME280;49564;59.406;24.724;2023-11-21T00:41:36;101441.44;;;4.18;33.72
63433;BME280;49564;59.406;24.724;2023-11-21T00:44:03;101442.43;;;3.99;33.63
63433;BME280;49564;59.406;24.724;2023-11-21T00:46:31;101442.48;;;3.99;33.69
63433;BME280;49564;59.406;24.724;2023-11-21T00:48:58;101442.42;;;4.26;33.74
63433;BME280;49564;59.406;24.724;2023-11-21T00:51:25;101444.52;;;4.00;33.69
63433;BME280;49564;59.406;24.724;2023-11-21T00:53:52;101446.37;;;3.99;33.75
63433;BME280;49564;59.406;24.724;2023-11-21T00:56:19;101448.09;;;4.00;33.74
63433;BME280;49564;59.406;24.724;2023-11-21T00:58:45;101447.64;;;4.03;33.70
63433;BME280;49564;59.406;24.724;2023-11-21T01:01:12;101447.15;;;3.94;33.98
63433;BME280;49564;59.406;24.724;2023-11-21T01:03:39;101447.71;;;4.01;33.83
63433;BME280;49564;59.406;24.724;2023-11-21T01:06:07;101445.00;;;3.79;33.61
63433;BME280;49564;59.406;24.724;2023-11-21T01:08:34;101446.40;;;3.93;33.96
63433;BME280;49564;59.406;24.724;2023-11-21T01:11:02;101443.53;;;4.03;33.90
63433;BME280;49564;59.406;24.724;2023-11-21T01:13:29;101446.27;;;4.06;33.73
63433;BME280;49564;59.406;24.724;2023-11-21T01:15:56;101444.61;;;4.05;33.94
63433;BME280;49564;59.406;24.724;2023-11-21T01:18:24;101447.49;;;4.11;33.67
63433;BME280;49564;59.406;24.724;2023-11-21T01:20:51;101447.52;;;4.24;34.03
63433;BME280;49564;59.406;24.724;2023-11-21T01:23:19;101449.12;;;4.10;33.87
63433;BME280;49564;59.406;24.724;2023-11-21T01:25:46;101449.62;;;4.07;33.92
63433;BME280;49564;59.406;24.724;2023-11-21T01:28:13;101451.81;;;4.37;34.06
63433;BME280;49564;59.406;24.724;2023-11-21T01:30:40;101451.57;;;3.93;33.93
63433;BME280;49564;59.406;24.724;2023-11-21T01:33:08;101451.68;;;4.33;34.04
63433;BME280;49564;59.406;24.724;2023-11-21T01:35:34;101454.43;;;3.85;34.17
63433;BME280;49564;59.406;24.724;2023-11-21T01:38:01;101452.63;;;4.09;34.18
63433;BME280;49564;59.406;24.724;2023-11-21T01:40:28;101454.88;;;4.39;34.21
63433;BME280;49564;59.406;24.724;2023-11-21T01:42:56;101456.46;;;4.12;34.29
63433;BME280;49564;59.406;24.724;2023-11-21T01:45:23;101454.01;;;4.13;34.24
63433;BME280;49564;59.406;24.724;2023-11-21T01:47:50;101454.69;;;3.95;34.29
63433;BME280;49564;59.406;24.724;2023-11-21T01:50:18;101457.51;;;4.16;34.33
63433;BME280;49564;59.406;24.724;2023-11-21T01:52:46;101459.97;;;3.98;34.33
63433;BME280;49564;59.406;24.724;2023-11-21T01:55:16;101463.65;;;4.21;34.34
63433;BME280;49564;59.406;24.724;2023-11-21T01:57:43;101466.38;;;4.03;34.45
63433;BME280;49564;59.406;24.724;2023-11-21T02:00:13;101465.56;;;4.54;34.48
63433;BME280;49564;59.406;24.724;2023-11-21T02:02:40;101462.91;;;4.26;34.52
63433;BME280;49564;59.406;24.724;2023-11-21T02:05:07;101466.15;;;4.05;34.65
63433;BME280;49564;59.406;24.724;2023-11-21T02:07:34;101469.15;;;4.32;34.69
63433;BME280;49564;59.406;24.724;2023-11-21T02:10:02;101471.58;;;4.32;34.67
63433;BME280;49564;59.406;24.724;2023-11-21T02:12:29;101471.67;;;4.35;34.85
63433;BME280;49564;59.406;24.724;2023-11-21T02:14:56;101476.61;;;4.32;34.87
63433;BME280;49564;59.406;24.724;2023-11-21T02:17:24;101470.87;;;4.34;34.98
63433;BME280;49564;59.406;24.724;2023-11-21T02:19:51;101472.32;;;4.13;35.22
63433;BME280;49564;59.406;24.724;2023-11-21T02:22:19;101474.31;;;4.27;35.23
63433;BME280;49564;59.406;24.724;2023-11-21T02:24:46;101475.37;;;4.57;35.38
63433;BME280;49564;59.406;24.724;2023-11-21T02:27:14;101479.21;;;4.08;35.60
63433;BME280;49564;59.406;24.724;2023-11-21T02:29:41;101476.28;;;4.32;35.81
63433;BME280;49564;59.406;24.724;2023-11-21T02:32:08;101478.00;;;4.12;35.62
63433;BME280;49564;59.406;24.724;2023-11-21T02:34:35;101477.96;;;4.19;35.46
63433;BME280;49564;59.406;24.724;2023-11-21T02:37:02;101477.29;;;4.21;35.56
63433;BME280;49564;59.406;24.724;2023-11-21T02:39:30;101472.70;;;4.43;35.58
63433;BME280;49564;59.406;24.724;2023-11-21T02:41:57;101474.99;;;4.40;35.83
63433;BME280;49564;59.406;24.724;2023-11-21T02:44:24;101477.21;;;4.27;35.79
63433;BME280;49564;59.406;24.724;2023-11-21T02:46:52;101480.34;;;4.27;35.84
63433;BME280;49564;59.406;24.724;2023-11-21T02:49:19;101480.08;;;4.25;36.11
63433;BME280;49564;59.406;24.724;2023-11-21T02:51:46;101480.22;;;4.20;35.98
63433;BME280;49564;59.406;24.724;2023-11-21T02:54:12;101479.67;;;4.30;35.99
63433;BME280;49564;59.406;24.724;2023-11-21T02:56:39;101479.77;;;4.54;36.02
63433;BME280;49564;59.406;24.724;2023-11-21T02:59:06;101486.00;;;4.29;36.11
63433;BME280;49564;59.406;24.724;2023-11-21T03:01:33;101483.81;;;4.25;36.52
63433;BME280;49564;59.406;24.724;2023-11-21T03:04:00;101484.79;;;4.24;36.28
63433;BME280;49564;59.406;24.724;2023-11-21T03:06:26;101487.89;;;4.30;36.15
63433;BME280;49564;59.406;24.724;2023-11-21T03:08:54;101487.81;;;4.35;36.09
63433;BME280;49564;59.406;24.724;2023-11-21T03:11:21;101488.25;;;4.33;36.12
63433;BME280;49564;59.406;24.724;2023-11-21T03:13:48;101489.83;;;4.39;36.30
63433;BME280;49564;59.406;24.724;2023-11-21T03:16:16;101490.07;;;4.36;36.10
63433;BME280;49564;59.406;24.724;2023-11-21T03:18:43;101487.48;;;4.36;36.36
63433;BME280;49564;59.406;24.724;2023-11-21T03:21:10;101490.16;;;4.31;36.33
63433;BME280;49564;59.406;24.724;2023-11-21T03:23:37;101493.06;;;4.33;36.43
63433;BME280;49564;59.406;24.724;2023-11-21T03:26:05;101493.93;;;4.46;36.34
63433;BME280;49564;59.406;24.724;2023-11-21T03:28:32;101494.98;;;4.29;36.40
63433;BME280;49564;59.406;24.724;2023-11-21T03:30:59;101492.99;;;4.28;36.47
63433;BME280;49564;59.406;24.724;2023-11-21T03:33:25;101492.21;;;4.36;36.68
63433;BME280;49564;59.406;24.724;2023-11-21T03:35:52;101490.74;;;4.15;36.48
63433;BME280;49564;59.406;24.724;2023-11-21T03:38:19;101490.00;;;4.22;36.47
63433;BME280;49564;59.406;24.724;2023-11-21T03:40:47;101489.72;;;4.23;36.32
63433;BME280;49564;59.406;24.724;2023-11-21T03:43:14;101492.99;;;4.41;36.36
63433;BME280;49564;59.406;24.724;2023-11-21T03:45:41;101494.73;;;4.39;36.41
63433;BME280;49564;59.406;24.724;2023-11-21T03:48:08;101494.20;;;4.37;36.44
63433;BME280;49564;59.406;24.724;2023-11-21T03:50:36;101495.97;;;4.39;36.42
63433;BME280;49564;59.406;24.724;2023-11-21T03:53:03;101498.31;;;4.06;36.45
63433;BME280;49564;59.406;24.724;2023-11-21T03:55:30;101500.28;;;4.02;36.51
63433;BME280;49564;59.406;24.724;2023-11-21T03:57:57;101503.08;;;4.26;36.44
63433;BME280;49564;59.406;24.724;2023-11-21T04:00:25;101502.92;;;4.26;36.37
63433;BME280;49564;59.406;24.724;2023-11-21T04:02:52;101507.10;;;4.23;36.42
63433;BME280;49564;59.406;24.724;2023-11-21T04:05:20;101508.95;;;4.20;36.45
63433;BME280;49564;59.406;24.724;2023-11-21T04:07:48;101510.81;;;4.42;36.43
63433;BME280;49564;59.406;24.724;2023-11-21T04:10:15;101512.69;;;4.18;36.35
63433;BME280;49564;59.406;24.724;2023-11-21T04:12:42;101514.87;;;3.93;36.36
63433;BME280;49564;59.406;24.724;2023-11-21T04:15:11;101513.94;;;4.07;36.38
63433;BME280;49564;59.406;24.724;2023-11-21T04:17:38;101517.20;;;4.02;36.48
63433;BME280;49564;59.406;24.724;2023-11-21T04:20:06;101521.01;;;3.99;36.49
63433;BME280;49564;59.406;24.724;2023-11-21T04:22:34;101524.56;;;4.02;36.35
63433;BME280;49564;59.406;24.724;2023-11-21T04:25:03;101526.07;;;4.01;36.29
63433;BME280;49564;59.406;24.724;2023-11-21T04:27:30;101529.90;;;3.91;36.39
63433;BME280;49564;59.406;24.724;2023-11-21T04:29:58;101535.00;;;3.99;36.29
63433;BME280;49564;59.406;24.724;2023-11-21T04:32:24;101535.82;;;3.97;36.24
63433;BME280;49564;59.406;24.724;2023-11-21T04:34:52;101540.10;;;3.96;36.25
63433;BME280;49564;59.406;24.724;2023-11-21T04:37:19;101538.24;;;4.26;36.18
63433;BME280;49564;59.406;24.724;2023-11-21T04:39:46;101541.22;;;3.85;36.35
63433;BME280;49564;59.406;24.724;2023-11-21T04:42:12;101538.78;;;3.88;36.28
63433;BME280;49564;59.406;24.724;2023-11-21T04:44:39;101539.58;;;3.68;36.26
63433;BME280;49564;59.406;24.724;2023-11-21T04:47:06;101544.62;;;4.14;36.27
63433;BME280;49564;59.406;24.724;2023-11-21T04:49:34;101545.36;;;4.06;36.37
63433;BME280;49564;59.406;24.724;2023-11-21T04:52:01;101542.73;;;3.86;36.26
63433;BME280;49564;59.406;24.724;2023-11-21T04:54:28;101543.15;;;4.17;36.21
63433;BME280;49564;59.406;24.724;2023-11-21T04:56:56;101538.66;;;4.17;36.16
63433;BME280;49564;59.406;24.724;2023-11-21T04:59:23;101544.23;;;4.17;36.14
63433;BME280;49564;59.406;24.724;2023-11-21T05:01:49;101543.41;;;3.79;36.26
63433;BME280;49564;59.406;24.724;2023-11-21T05:04:16;101544.04;;;3.84;36.21
63433;BME280;49564;59.406;24.724;2023-11-21T05:06:43;101546.51;;;3.88;36.07
63433;BME280;49564;59.406;24.724;2023-11-21T05:09:10;101544.68;;;3.63;36.14
63433;BME280;49564;59.406;24.724;2023-11-21T05:11:37;101543.06;;;4.12;36.14
63433;BME280;49564;59.406;24.724;2023-11-21T05:14:04;101542.78;;;4.02;36.26
63433;BME280;49564;59.406;24.724;2023-11-21T05:16:31;101544.90;;;3.86;36.13
63433;BME280;49564;59.406;24.724;2023-11-21T05:18:58;101547.98;;;3.85;36.16
63433;BME280;49564;59.406;24.724;2023-11-21T05:21:25;101548.13;;;3.87;36.12
63433;BME280;49564;59.406;24.724;2023-11-21T05:23:53;101546.99;;;3.88;36.09
63433;BME280;49564;59.406;24.724;2023-11-21T05:26:20;101544.99;;;3.89;36.08
63433;BME280;49564;59.406;24.724;2023-11-21T05:28:47;101544.01;;;3.91;36.04
63433;BME280;49564;59.406;24.724;2023-11-21T05:31:15;101547.19;;;3.92;35.97
63433;BME280;49564;59.406;24.724;2023-11-21T05:33:42;101545.84;;;3.93;35.92
63433;BME280;49564;59.406;24.724;2023-11-21T05:36:10;101549.38;;;3.85;36.04
63433;BME280;49564;59.406;24.724;2023-11-21T05:38:38;101552.25;;;4.11;36.03
63433;BME280;49564;59.406;24.724;2023-11-21T05:41:05;101556.14;;;3.84;36.00
63433;BME280;49564;59.406;24.724;2023-11-21T05:43:33;101559.08;;;3.80;36.06
63433;BME280;49564;59.406;24.724;2023-11-21T05:46:01;101559.09;;;4.05;36.08
63433;BME280;49564;59.406;24.724;2023-11-21T05:48:28;101562.24;;;3.85;35.90
63433;BME280;49564;59.406;24.724;2023-11-21T05:50:55;101562.80;;;3.94;35.81
63433;BME280;49564;59.406;24.724;2023-11-21T05:53:22;101565.57;;;3.91;35.84
63433;BME280;49564;59.406;24.724;2023-11-21T05:55:49;101568.98;;;3.90;35.84
63433;BME280;49564;59.406;24.724;2023-11-21T05:58:16;101570.32;;;3.92;35.73
63433;BME280;49564;59.406;24.724;2023-11-21T06:00:44;101574.03;;;3.98;35.65
63433;BME280;49564;59.406;24.724;2023-11-21T06:03:11;101575.12;;;3.94;35.68
63433;BME280;49564;59.406;24.724;2023-11-21T06:05:38;101577.69;;;3.88;35.75
63433;BME280;49564;59.406;24.724;2023-11-21T06:08:05;101579.48;;;4.12;35.81
63433;BME280;49564;59.406;24.724;2023-11-21T06:10:31;101582.26;;;3.94;35.72
63433;BME280;49564;59.406;24.724;2023-11-21T06:12:58;101580.36;;;4.21;35.67
63433;BME280;49564;59.406;24.724;2023-11-21T06:15:26;101580.80;;;3.93;35.60
63433;BME280;49564;59.406;24.724;2023-11-21T06:17:52;101585.44;;;4.21;35.64
63433;BME280;49564;59.406;24.724;2023-11-21T06:20:19;101586.35;;;4.25;35.56
63433;BME280;49564;59.406;24.724;2023-11-21T06:22:48;101585.98;;;3.96;35.48
63433;BME280;49564;59.406;24.724;2023-11-21T06:25:16;101589.20;;;4.00;35.34
63433;BME280;49564;59.406;24.724;2023-11-21T06:27:45;101589.36;;;4.02;35.13
63433;BME280;49564;59.406;24.724;2023-11-21T06:30:14;101590.59;;;3.83;35.10
63433;BME280;49564;59.406;24.724;2023-11-21T06:32:41;101590.54;;;4.03;35.12
63433;BME280;49564;59.406;24.724;2023-11-21T06:35:08;101589.80;;;3.99;35.33
63433;BME280;49564;59.406;24.724;2023-11-21T06:37:35;101589.63;;;3.80;35.28
63433;BME280;49564;59.406;24.724;2023-11-21T06:40:04;101589.94;;;4.31;35.26
63433;BME280;49564;59.406;24.724;2023-11-21T06:42:32;101588.26;;;4.06;35.29
63433;BME280;49564;59.406;24.724;2023-11-21T06:44:59;101588.03;;;4.10;35.22
63433;BME280;49564;59.406;24.724;2023-11-21T06:47:27;101590.43;;;3.82;35.35
63433;BME280;49564;59.406;24.724;2023-11-21T06:49:54;101595.59;;;3.88;35.34
63433;BME280;49564;59.406;24.724;2023-11-21T06:52:22;101598.34;;;3.91;35.16
63433;BME280;49564;59.406;24.724;2023-11-21T06:54:50;101597.77;;;4.07;35.33
63433;BME280;49564;59.406;24.724;2023-11-21T06:57:17;101600.16;;;4.03;35.43
63433;BME280;49564;59.406;24.724;2023-11-21T06:59:45;101602.44;;;4.15;35.33
63433;BME280;49564;59.406;24.724;2023-11-21T07:02:12;101599.72;;;4.18;35.29
63433;BME280;49564;59.406;24.724;2023-11-21T07:04:39;101601.02;;;4.18;35.34
63433;BME280;49564;59.406;24.724;2023-11-21T07:07:06;101602.50;;;3.92;35.39
63433;BME280;49564;59.406;24.724;2023-11-21T07:09:34;101604.03;;;4.21;35.25
63433;BME280;49564;59.406;24.724;2023-11-21T07:12:01;101606.28;;;4.15;35.05
63433;BME280;49564;59.406;24.724;2023-11-21T07:14:28;101611.59;;;4.24;35.10
63433;BME280;49564;59.406;24.724;2023-11-21T07:16:56;101612.81;;;4.29;35.10
63433;BME280;49564;59.406;24.724;2023-11-21T07:19:23;101614.57;;;4.34;35.07
63433;BME280;49564;59.406;24.724;2023-11-21T07:21:50;101616.23;;;4.38;34.85
63433;BME280;49564;59.406;24.724;2023-11-21T07:24:17;101618.03;;;4.35;34.89
63433;BME280;49564;59.406;24.724;2023-11-21T07:26:44;101618.00;;;4.42;34.76
63433;BME280;49564;59.406;24.724;2023-11-21T07:29:11;101617.02;;;4.20;34.79
63433;BME280;49564;59.406;24.724;2023-11-21T07:31:39;101616.05;;;4.19;34.68
63433;BME280;49564;59.406;24.724;2023-11-21T07:34:06;101616.14;;;4.24;34.59
63433;BME280;49564;59.406;24.724;2023-11-21T07:36:33;101620.20;;;4.45;34.78
63433;BME280;49564;59.406;24.724;2023-11-21T07:39:00;101617.99;;;4.21;34.82
63433;BME280;49564;59.406;24.724;2023-11-21T07:41:27;101617.79;;;4.29;34.84
63433;BME280;49564;59.406;24.724;2023-11-21T07:43:53;101619.11;;;4.34;34.78
63433;BME280;49564;59.406;24.724;2023-11-21T07:46:20;101619.07;;;4.42;34.79
63433;BME280;49564;59.406;24.724;2023-11-21T07:48:48;101617.34;;;4.76;34.76
63433;BME280;49564;59.406;24.724;2023-11-21T07:51:16;101617.74;;;4.59;34.68
63433;BME280;49564;59.406;24.724;2023-11-21T07:53:44;101621.84;;;4.40;34.68
63433;BME280;49564;59.406;24.724;2023-11-21T07:56:11;101625.50;;;4.64;34.73
63433;BME280;49564;59.406;24.724;2023-11-21T07:58:38;101629.71;;;4.67;34.76
63433;BME280;49564;59.406;24.724;2023-11-21T08:01:05;101633.42;;;4.70;34.60
63433;BME280;49564;59.406;24.724;2023-11-21T08:03:32;101636.89;;;4.70;34.46
63433;BME280;49564;59.406;24.724;2023-11-21T08:05:59;101643.77;;;4.68;34.44
63433;BME280;49564;59.406;24.724;2023-11-21T08:08:26;101651.79;;;4.66;34.46
63433;BME280;49564;59.406;24.724;2023-11-21T08:10:54;101654.46;;;4.62;34.84
63433;BME280;49564;59.406;24.724;2023-11-21T08:13:22;101659.44;;;4.62;34.94
63433;BME280;49564;59.406;24.724;2023-11-21T08:15:49;101658.68;;;4.61;35.16
63433;BME280;49564;59.406;24.724;2023-11-21T08:18:17;101660.59;;;4.58;35.25
63433;BME280;49564;59.406;24.724;2023-11-21T08:20:44;101654.77;;;4.64;35.30
63433;BME280;49564;59.406;24.724;2023-11-21T08:23:11;101647.80;;;4.63;35.60
63433;BME280;49564;59.406;24.724;2023-11-21T08:25:39;101650.04;;;4.69;35.65
63433;BME280;49564;59.406;24.724;2023-11-21T08:28:06;101657.26;;;4.41;35.76
63433;BME280;49564;59.406;24.724;2023-11-21T08:30:32;101658.81;;;4.91;36.02
63433;BME280;49564;59.406;24.724;2023-11-21T08:32:59;101660.45;;;4.64;35.96
63433;BME280;49564;59.406;24.724;2023-11-21T08:35:27;101659.80;;;4.65;35.93
63433;BME280;49564;59.406;24.724;2023-11-21T08:37:53;101656.92;;;4.68;36.05
63433;BME280;49564;59.406;24.724;2023-11-21T08:40:20;101655.25;;;4.76;35.97
63433;BME280;49564;59.406;24.724;2023-11-21T08:42:48;101655.65;;;4.61;36.05
63433;BME280;49564;59.406;24.724;2023-11-21T08:45:15;101658.75;;;4.89;36.02
63433;BME280;49564;59.406;24.724;2023-11-21T08:47:43;101661.04;;;4.96;36.30
63433;BME280;49564;59.406;24.724;2023-11-21T08:50:10;101662.62;;;5.04;35.98
63433;BME280;49564;59.406;24.724;2023-11-21T08:52:38;101663.49;;;5.02;36.14
63433;BME280;49564;59.406;24.724;2023-11-21T08:55:06;101666.17;;;5.06;36.13
63433;BME280;49564;59.406;24.724;2023-11-21T08:57:33;101671.15;;;4.84;36.21
63433;BME280;49564;59.406;24.724;2023-11-21T09:00:01;101676.02;;;4.98;36.61
63433;BME280;49564;59.406;24.724;2023-11-21T09:02:28;101682.54;;;4.93;36.80
63433;BME280;49564;59.406;24.724;2023-11-21T09:04:55;101690.56;;;4.69;37.43
63433;BME280;49564;59.406;24.724;2023-11-21T09:07:23;101698.61;;;4.61;37.62
63433;BME280;49564;59.406;24.724;2023-11-21T09:09:50;101707.84;;;4.53;37.76
63433;BME280;49564;59.406;24.724;2023-11-21T09:12:17;101714.02;;;4.36;37.93
63433;BME280;49564;59.406;24.724;2023-11-21T09:14:44;101724.48;;;3.78;38.34
63433;BME280;49564;59.406;24.724;2023-11-21T09:17:12;101721.71;;;3.64;38.15
63433;BME280;49564;59.406;24.724;2023-11-21T09:19:39;101726.11;;;3.75;38.21
63433;BME280;49564;59.406;24.724;2023-11-21T09:22:07;101727.82;;;4.06;37.79
63433;BME280;49564;59.406;24.724;2023-11-21T09:24:35;101735.19;;;4.17;37.35
63433;BME280;49564;59.406;24.724;2023-11-21T09:27:02;101732.91;;;4.20;37.10
63433;BME280;49564;59.406;24.724;2023-11-21T09:29:29;101741.21;;;3.63;37.27
63433;BME280;49564;59.406;24.724;2023-11-21T09:31:56;101738.82;;;3.73;36.99
63433;BME280;49564;59.406;24.724;2023-11-21T09:34:23;101743.54;;;3.88;36.79
63433;BME280;49564;59.406;24.724;2023-11-21T09:36:50;101746.93;;;4.16;36.43
63433;BME280;49564;59.406;24.724;2023-11-21T09:39:17;101741.45;;;4.01;36.09
63433;BME280;49564;59.406;24.724;2023-11-21T09:41:50;101740.94;;;3.90;35.80
63433;BME280;49564;59.406;24.724;2023-11-21T09:44:18;101756.19;;;4.07;35.45
63433;BME280;49564;59.406;24.724;2023-11-21T09:46:48;101762.88;;;3.91;35.25
63433;BME280;49564;59.406;24.724;2023-11-21T09:49:18;101769.83;;;3.20;34.67
63433;BME280;49564;59.406;24.724;2023-11-21T09:51:45;101774.06;;;3.59;34.43
63433;BME280;49564;59.406;24.724;2023-11-21T09:54:15;101771.76;;;3.36;34.56
63433;BME280;49564;59.406;24.724;2023-11-21T09:56:43;101772.01;;;3.86;34.18
63433;BME280;49564;59.406;24.724;2023-11-21T09:59:14;101768.38;;;3.94;34.25
63433;BME280;49564;59.406;24.724;2023-11-21T10:01:42;101769.88;;;3.49;33.89
63433;BME280;49564;59.406;24.724;2023-11-21T10:04:09;101786.09;;;3.04;34.03
63433;BME280;49564;59.406;24.724;2023-11-21T10:06:37;101785.05;;;2.67;33.97
63433;BME280;49564;59.406;24.724;2023-11-21T10:09:06;101782.01;;;2.70;34.01
63433;BME280;49564;59.406;24.724;2023-11-21T10:11:34;101779.88;;;3.15;33.57
63433;BME280;49564;59.406;24.724;2023-11-21T10:14:02;101788.79;;;3.26;33.47
63433;BME280;49564;59.406;24.724;2023-11-21T10:16:29;101791.44;;;3.35;33.46
63433;BME280;49564;59.406;24.724;2023-11-21T10:18:57;101806.45;;;3.36;33.34
63433;BME280;49564;59.406;24.724;2023-11-21T10:21:25;101790.73;;;3.07;33.27
63433;BME280;49564;59.406;24.724;2023-11-21T10:23:53;101787.66;;;3.28;33.26
63433;BME280;49564;59.406;24.724;2023-11-21T10:26:21;101797.60;;;2.66;33.16
63433;BME280;49564;59.406;24.724;2023-11-21T10:28:57;101802.93;;;3.09;33.12
63433;BME280;49564;59.406;24.724;2023-11-21T10:31:27;101796.56;;;3.43;32.82
63433;BME280;49564;59.406;24.724;2023-11-21T10:33:54;101809.42;;;3.44;32.66
63433;BME280;49564;59.406;24.724;2023-11-21T10:36:26;101797.97;;;3.47;32.59
63433;BME280;49564;59.406;24.724;2023-11-21T10:38:54;101795.32;;;3.52;32.16
63433;BME280;49564;59.406;24.724;2023-11-21T10:41:21;101798.56;;;3.53;32.31
63433;BME280;49564;59.406;24.724;2023-11-21T10:43:49;101803.63;;;3.55;32.08
63433;BME280;49564;59.406;24.724;2023-11-21T10:46:20;101802.01;;;3.55;32.18
63433;BME280;49564;59.406;24.724;2023-11-21T10:48:52;101807.20;;;3.22;31.79
63433;BME280;49564;59.406;24.724;2023-11-21T10:51:20;101805.02;;;3.78;31.70
63433;BME280;49564;59.406;24.724;2023-11-21T10:53:47;101809.76;;;3.71;31.47
63433;BME280;49564;59.406;24.724;2023-11-21T10:56:14;101810.84;;;3.68;31.29
63433;BME280;49564;59.406;24.724;2023-11-21T10:58:42;101815.05;;;3.75;31.38
63433;BME280;49564;59.406;24.724;2023-11-21T11:01:09;101825.21;;;3.76;30.82
63433;BME280;49564;59.406;24.724;2023-11-21T11:03:37;101824.51;;;3.51;30.66
63433;BME280;49564;59.406;24.724;2023-11-21T11:06:05;101824.43;;;3.28;30.93
63433;BME280;49564;59.406;24.724;2023-11-21T11:08:32;101817.31;;;3.82;30.69
63433;BME280;49564;59.406;24.724;2023-11-21T11:11:01;101825.58;;;4.11;30.65
63433;BME280;49564;59.406;24.724;2023-11-21T11:13:29;101828.00;;;3.93;30.47
63433;BME280;49564;59.406;24.724;2023-11-21T11:15:59;101821.61;;;4.27;30.41
63433;BME280;49564;59.406;24.724;2023-11-21T11:18:26;101827.01;;;4.03;30.54
63433;BME280;49564;59.406;24.724;2023-11-21T11:20:54;101826.54;;;3.88;30.21
63433;BME280;49564;59.406;24.724;2023-11-21T11:23:37;101827.41;;;4.16;30.57
63433;BME280;49564;59.406;24.724;2023-11-21T11:26:15;101829.85;;;3.80;30.39
63433;BME280;49564;59.406;24.724;2023-11-21T11:28:53;101837.32;;;3.62;30.53
63433;BME280;49564;59.406;24.724;2023-11-21T11:31:33;101846.67;;;3.78;30.82
63433;BME280;49564;59.406;24.724;2023-11-21T11:34:11;101844.45;;;3.70;30.70
63433;BME280;49564;59.406;24.724;2023-11-21T11:36:51;101842.94;;;3.97;30.58
63433;BME280;49564;59.406;24.724;2023-11-21T11:39:28;101845.41;;;3.86;30.52
63433;BME280;49564;59.406;24.724;2023-11-21T11:41:56;101853.12;;;3.97;30.65
63433;BME280;49564;59.406;24.724;2023-11-21T11:44:55;101861.68;;;4.03;30.26
63433;BME280;49564;59.406;24.724;2023-11-21T11:47:24;101857.51;;;3.86;30.35
63433;BME280;49564;59.406;24.724;2023-11-21T11:50:02;101851.56;;;3.75;29.78
63433;BME280;49564;59.406;24.724;2023-11-21T11:52:37;101852.31;;;3.96;29.79
63433;BME280;49564;59.406;24.724;2023-11-21T11:55:06;101857.22;;;4.34;29.91
63433;BME280;49564;59.406;24.724;2023-11-21T11:57:34;101861.43;;;4.10;29.73
63433;BME280;49564;59.406;24.724;2023-11-21T12:00:19;101864.79;;;4.01;29.34
63433;BME280;49564;59.406;24.724;2023-11-21T12:02:48;101882.57;;;4.35;29.46
63433;BME280;49564;59.406;24.724;2023-11-21T12:05:17;101881.44;;;3.83;29.24
63433;BME280;49564;59.406;24.724;2023-11-21T12:07:47;101877.07;;;4.24;29.37
63433;BME280;49564;59.406;24.724;2023-11-21T12:10:16;101885.73;;;3.98;29.34
63433;BME280;49564;59.406;24.724;2023-11-21T12:12:45;101883.40;;;3.86;29.09
63433;BME280;49564;59.406;24.724;2023-11-21T12:15:13;101888.97;;;3.67;29.11
63433;BME280;49564;59.406;24.724;2023-11-21T12:17:42;101898.16;;;3.73;29.22
63433;BME280;49564;59.406;24.724;2023-11-21T12:20:11;101900.59;;;3.86;29.22
63433;BME280;49564;59.406;24.724;2023-11-21T12:22:38;101894.75;;;3.98;29.30
63433;BME280;49564;59.406;24.724;2023-11-21T12:25:06;101904.48;;;3.86;29.00
63433;BME280;49564;59.406;24.724;2023-11-21T12:27:34;101912.99;;;3.45;29.20
63433;BME280;49564;59.406;24.724;2023-11-21T12:30:01;101908.90;;;3.63;29.09
63433;BME280;49564;59.406;24.724;2023-11-21T12:32:27;101913.81;;;3.59;28.69
63433;BME280;49564;59.406;24.724;2023-11-21T12:34:55;101908.68;;;3.31;28.88
63433;BME280;49564;59.406;24.724;2023-11-21T12:37:22;101908.29;;;3.47;28.53
63433;BME280;49564;59.406;24.724;2023-11-21T12:39:49;101904.76;;;3.25;28.81
63433;BME280;49564;59.406;24.724;2023-11-21T12:42:16;101912.02;;;3.20;28.71
63433;BME280;49564;59.406;24.724;2023-11-21T12:44:46;101911.15;;;3.44;28.73
63433;BME280;49564;59.406;24.724;2023-11-21T12:47:17;101913.64;;;3.43;28.70
63433;BME280;49564;59.406;24.724;2023-11-21T12:49:44;101918.27;;;3.38;28.47
63433;BME280;49564;59.406;24.724;2023-11-21T12:52:11;101923.51;;;3.35;28.56
63433;BME280;49564;59.406;24.724;2023-11-21T12:54:39;101931.27;;;3.00;28.80